Time;durP1;ratioP1;P1;durP2;ratioP2;P2;SDS_P1;SDS_P2;PMS_P1;PMS_P2;Temp;Humidity;BMP_temperature;BMP_pressure;BME280_temperature;BME280_humidity;BME280_pressure;Samples;Min_cycle;Max_cycle;Signal;HPM_P1;HPM_P2
2023/09/26 00:04:41;;;;;;;2.15;1.00;;;;;;;12.85;100.00;99117.16;15276205;19;20024;-54
2023/09/26 00:10:07;;;;;;;1.70;1.10;;;;;;;12.79;100.00;99120.47;15271019;19;20014;-53
2023/09/26 00:15:35;;;;;;;1.27;1.10;;;;;;;12.72;100.00;99119.41;15266539;19;20844;-49
2023/09/26 00:20:59;;;;;;;3.70;1.00;;;;;;;12.68;100.00;99131.53;15275580;19;20066;-51
2023/09/26 00:26:25;;;;;;;3.53;1.20;;;;;;;12.61;100.00;99139.44;15268290;19;20007;-52
2023/09/26 00:31:55;;;;;;;2.72;1.40;;;;;;;12.53;100.00;99136.66;15273685;19;20541;-50
2023/09/26 00:37:20;;;;;;;1.42;1.20;;;;;;;12.48;100.00;99146.09;15271677;19;20010;-52
2023/09/26 00:42:45;;;;;;;2.47;1.20;;;;;;;12.43;100.00;99144.84;15270779;19;20081;-53
2023/09/26 00:48:13;;;;;;;1.63;1.27;;;;;;;12.38;100.00;99147.19;15264418;19;20508;-50
2023/09/26 00:53:41;;;;;;;1.55;1.10;;;;;;;12.29;100.00;99152.50;15271899;19;20078;-49
2023/09/26 00:59:09;;;;;;;1.58;1.20;;;;;;;12.26;100.00;99146.56;15261772;19;20475;-52
2023/09/26 01:04:36;;;;;;;2.58;1.10;;;;;;;12.23;100.00;99142.31;15269896;19;20357;-48
2023/09/26 01:10:03;;;;;;;2.08;1.20;;;;;;;12.20;100.00;99136.38;15267958;19;20016;-47
2023/09/26 01:15:36;;;;;;;1.25;1.10;;;;;;;12.12;100.00;99129.03;15270679;19;20031;-50
2023/09/26 01:21:04;;;;;;;4.43;1.30;;;;;;;12.01;100.00;99130.97;15265426;19;20017;-48
2023/09/26 01:26:37;;;;;;;1.40;1.30;;;;;;;11.92;100.00;99126.47;15267915;19;20830;-48
2023/09/26 01:32:02;;;;;;;1.85;1.10;;;;;;;11.84;100.00;99121.81;15279122;19;20082;-48
2023/09/26 01:37:27;;;;;;;1.15;1.05;;;;;;;11.78;100.00;99114.31;15278113;19;20021;-50
2023/09/26 01:43:02;;;;;;;1.17;1.08;;;;;;;11.71;100.00;99099.75;15281252;19;20089;-50
2023/09/26 01:48:26;;;;;;;1.63;1.00;;;;;;;11.62;100.00;99112.28;15282149;19;20018;-49
2023/09/26 01:53:53;;;;;;;1.45;1.10;;;;;;;11.53;100.00;99107.78;15278341;19;20371;-49
2023/09/26 01:59:20;;;;;;;1.42;1.20;;;;;;;11.39;100.00;99101.91;15280559;19;20014;-51
2023/09/26 02:04:45;;;;;;;1.50;1.30;;;;;;;11.29;100.00;99109.19;15272724;19;20508;-49
2023/09/26 02:10:12;;;;;;;2.35;1.35;;;;;;;11.20;100.00;99108.22;15278479;19;20017;-52
2023/09/26 02:15:39;;;;;;;2.20;1.48;;;;;;;11.10;100.00;99131.69;15280587;19;20019;-53
2023/09/26 02:21:03;;;;;;;1.92;1.40;;;;;;;11.07;100.00;99123.88;15279662;19;20092;-50
2023/09/26 02:26:28;;;;;;;3.50;1.80;;;;;;;11.03;100.00;99128.72;15273574;19;20377;-52
2023/09/26 02:31:55;;;;;;;2.33;2.00;;;;;;;11.03;100.00;99142.22;15317278;19;20011;-50
2023/09/26 02:37:20;;;;;;;2.03;1.92;;;;;;;11.00;100.00;99150.59;15310982;19;20028;-50
2023/09/26 02:42:52;;;;;;;2.95;1.90;;;;;;;11.09;100.00;99179.41;15275738;19;20078;-51
2023/09/26 02:48:19;;;;;;;2.75;1.80;;;;;;;11.13;100.00;99174.56;15276002;19;20364;-54
2023/09/26 02:53:44;;;;;;;1.88;1.70;;;;;;;11.17;100.00;99178.66;15277500;19;20029;-51
2023/09/26 02:59:08;;;;;;;2.50;1.52;;;;;;;11.23;100.00;99177.22;15270112;19;20086;-52
2023/09/26 03:04:37;;;;;;;1.75;1.50;;;;;;;11.20;100.00;99166.72;15275432;19;20022;-53
2023/09/26 03:10:03;;;;;;;2.45;1.65;;;;;;;11.20;100.00;99153.25;15262782;19;20384;-51
2023/09/26 03:15:28;;;;;;;1.73;1.40;;;;;;;11.20;100.00;99142.47;15276020;19;20019;-52
2023/09/26 03:20:57;;;;;;;1.60;1.20;;;;;;;11.19;100.00;99140.75;15277701;19;20089;-52
2023/09/26 03:26:23;;;;;;;1.98;1.40;;;;;;;11.14;100.00;99141.19;15275995;19;20025;-51
2023/09/26 03:31:48;;;;;;;1.70;1.10;;;;;;;11.12;100.00;99126.13;15267573;19;20635;-50
2023/09/26 03:37:15;;;;;;;1.55;1.30;;;;;;;11.07;100.00;99113.97;15274200;19;20014;-49
2023/09/26 03:42:47;;;;;;;3.40;1.20;;;;;;;11.06;100.00;99116.78;15261662;19;20082;-49
2023/09/26 03:48:12;;;;;;;1.52;1.10;;;;;;;11.00;100.00;99107.44;15271890;19;20029;-51
2023/09/26 03:53:40;;;;;;;1.73;1.35;;;;;;;10.94;100.00;99108.88;15274146;19;20031;-53
2023/09/26 03:59:07;;;;;;;1.33;1.23;;;;;;;10.87;100.00;99110.47;15269375;19;20014;-51
2023/09/26 04:04:33;;;;;;;2.20;1.35;;;;;;;10.81;100.00;99107.53;15267464;19;20018;-50
2023/09/26 04:10:02;;;;;;;1.90;1.48;;;;;;;10.80;100.00;99114.78;15268885;19;20021;-49
2023/09/26 04:15:28;;;;;;;2.92;1.52;;;;;;;10.72;100.00;99112.78;15265548;19;20017;-51
2023/09/26 04:20:53;;;;;;;2.50;1.38;;;;;;;10.69;100.00;99117.63;15270988;19;20021;-52
2023/09/26 04:26:25;;;;;;;1.70;1.50;;;;;;;10.64;100.00;99115.38;15264304;19;20018;-49
2023/09/26 04:31:50;;;;;;;2.28;1.80;;;;;;;10.61;100.00;99121.03;15270458;19;20022;-49
2023/09/26 04:37:14;;;;;;;2.25;1.80;;;;;;;10.58;100.00;99126.72;15262790;19;20025;-51
2023/09/26 04:42:51;;;;;;;2.75;2.13;;;;;;;10.57;100.00;99133.09;15268981;19;20032;-50
2023/09/26 04:48:16;;;;;;;2.50;2.20;;;;;;;10.47;100.00;99166.28;15259923;19;20026;-49
2023/09/26 04:53:41;;;;;;;1.92;1.80;;;;;;;10.44;100.00;99174.66;15270795;19;20038;-51
2023/09/26 04:59:08;;;;;;;2.50;2.30;;;;;;;10.45;100.00;99187.13;15267620;19;20539;-53
2023/09/26 05:04:33;;;;;;;2.47;2.00;;;;;;;10.42;100.00;99190.09;15269847;19;20408;-50
2023/09/26 05:09:57;;;;;;;2.97;1.60;;;;;;;10.42;100.00;99178.47;15259556;19;20025;-53
2023/09/26 05:15:26;;;;;;;3.00;1.80;;;;;;;10.40;100.00;99175.94;15269488;19;20427;-54
2023/09/26 05:20:52;;;;;;;2.20;1.60;;;;;;;10.39;100.00;99174.25;15256927;19;20428;-54
2023/09/26 05:26:17;;;;;;;1.83;1.70;;;;;;;10.35;100.00;99170.09;15265271;19;20018;-50
2023/09/26 05:31:44;;;;;;;1.48;1.38;;;;;;;10.36;100.00;99169.09;15265333;19;20025;-51
2023/09/26 05:37:09;;;;;;;1.67;1.58;;;;;;;10.33;100.00;99164.84;15267157;19;20025;-51
2023/09/26 05:42:34;;;;;;;1.52;1.42;;;;;;;10.34;100.00;99165.69;15259119;19;20358;-53
2023/09/26 05:48:03;;;;;;;1.88;1.67;;;;;;;10.35;100.00;99171.94;15264252;19;20018;-51
2023/09/26 05:53:28;;;;;;;4.75;1.55;;;;;;;10.37;100.00;99173.50;15259901;19;20007;-53
2023/09/26 05:58:52;;;;;;;1.65;1.55;;;;;;;10.41;100.00;99171.38;15261024;19;20358;-51
2023/09/26 06:04:19;;;;;;;1.60;1.50;;;;;;;10.44;100.00;99163.03;15267433;19;20014;-51
2023/09/26 06:09:44;;;;;;;1.83;1.73;;;;;;;10.46;100.00;99172.66;15261429;19;20010;-52
2023/09/26 06:15:26;;;;;;;2.08;1.70;;;;;;;10.53;100.00;99170.25;15271786;19;20527;-53
2023/09/26 06:20:53;;;;;;;1.70;1.60;;;;;;;10.59;100.00;99172.38;15272244;19;20028;-52
2023/09/26 06:26:19;;;;;;;3.28;1.90;;;;;;;10.67;100.00;99168.13;15278685;19;20034;-52
2023/09/26 06:31:40;;;;;;;2.63;1.58;;;;;;;10.73;100.00;99175.63;15279300;19;20097;-52
2023/09/26 06:37:07;;;;;;;1.90;1.80;;;;;;;10.82;100.00;99173.91;15274523;19;20011;-55
2023/09/26 06:42:33;;;;;;;2.03;1.70;;;;;;;10.89;100.00;99175.88;15272516;19;20090;-52
2023/09/26 06:47:57;;;;;;;2.17;1.85;;;;;;;10.99;100.00;99186.66;15277954;19;20026;-53
2023/09/26 06:53:24;;;;;;;1.65;1.38;;;;;;;11.10;100.00;99183.81;15276621;19;20392;-53
2023/09/26 06:58:49;;;;;;;1.60;1.50;;;;;;;11.22;100.00;99191.72;15273136;19;20025;-53
2023/09/26 07:04:14;;;;;;;1.83;1.45;;;;;;;11.34;100.00;99185.16;15276739;19;20085;-50
2023/09/26 07:09:42;;;;;;;3.25;1.73;;;;;;;11.47;100.00;99187.50;15271707;19;20022;-53
2023/09/26 07:15:10;;;;;;;3.03;1.63;;;;;;;11.68;100.00;99176.47;15271260;19;20728;-52
2023/09/26 07:20:36;;;;;;;1.45;1.20;;;;;;;11.83;100.00;99170.56;15270661;19;20526;-52
2023/09/26 07:26:13;;;;;;;1.98;1.42;;;;;;;12.02;100.00;99156.97;15273279;19;20015;-49
2023/09/26 07:31:39;;;;;;;2.55;1.50;;;;;;;12.20;100.00;99145.31;15253005;19;20069;-51
2023/09/26 07:37:04;;;;;;;1.75;1.30;;;;;;;12.38;100.00;99139.09;15272434;19;20018;-52
2023/09/26 07:42:35;;;;;;;2.13;1.70;;;;;;;12.59;100.00;99136.91;15271287;19;20467;-49
2023/09/26 07:48:01;;;;;;;2.55;1.58;;;;;;;12.89;100.00;99120.38;15267851;19;20018;-51
2023/09/26 07:53:25;;;;;;;1.85;1.42;;;;;;;13.08;100.00;99120.16;15218672;19;20090;-51
2023/09/26 07:58:53;;;;;;;4.10;1.85;;;;;;;13.29;100.00;99110.78;15264556;19;20042;-51
2023/09/26 08:04:18;;;;;;;5.30;1.60;;;;;;;13.47;100.00;99091.78;15273596;19;20035;-51
2023/09/26 08:09:44;;;;;;;3.30;1.70;;;;;;;13.71;100.00;99079.31;15269269;19;20018;-51
2023/09/26 08:15:13;;;;;;;1.90;1.45;;;;;;;13.90;100.00;99080.06;15274625;19;20077;-52
2023/09/26 08:20:39;;;;;;;2.63;1.40;;;;;;;14.16;100.00;99074.50;15263312;19;20025;-49
2023/09/26 08:26:10;;;;;;;1.77;1.52;;;;;;;14.32;100.00;99063.66;15273471;19;20013;-49
2023/09/26 08:31:40;;;;;;;4.32;2.00;;;;;;;14.58;100.00;99067.19;15265487;19;20018;-51
2023/09/26 08:37:05;;;;;;;6.05;1.90;;;;;;;14.78;100.00;99054.16;15266809;19;20298;-52
2023/09/26 08:42:32;;;;;;;2.83;1.88;;;;;;;15.02;100.00;99055.09;15271438;19;20029;-50
2023/09/26 08:48:02;;;;;;;2.88;1.70;;;;;;;15.25;100.00;99052.47;15267821;19;20376;-52
2023/09/26 08:53:27;;;;;;;1.92;1.65;;;;;;;15.54;100.00;99054.53;15267613;19;20031;-51
2023/09/26 08:58:54;;;;;;;2.63;1.65;;;;;;;15.74;100.00;99042.38;15262343;19;20022;-49
2023/09/26 09:04:23;;;;;;;5.93;1.55;;;;;;;15.99;100.00;99035.78;15263473;19;20018;-50
2023/09/26 09:10:13;;;;;;;5.40;1.80;;;;;;;16.22;100.00;99031.38;15263592;19;20025;-49
2023/09/26 09:15:39;;;;;;;1.70;1.45;;;;;;;16.43;100.00;99017.91;15269281;19;20025;-50
2023/09/26 09:21:06;;;;;;;3.05;1.50;;;;;;;16.69;100.00;99010.34;15267828;19;20094;-50
2023/09/26 09:26:33;;;;;;;2.85;1.58;;;;;;;17.00;100.00;99007.47;15263905;19;20017;-54
2023/09/26 09:32:01;;;;;;;2.00;1.48;;;;;;;17.29;100.00;98997.56;15269702;19;20014;-54
2023/09/26 09:37:29;;;;;;;2.92;1.50;;;;;;;17.55;100.00;98988.88;15259813;19;20025;-52
2023/09/26 09:43:01;;;;;;;3.92;1.50;;;;;;;17.91;100.00;98986.31;15265418;19;20028;-51
2023/09/26 09:48:29;;;;;;;1.55;1.30;;;;;;;18.13;100.00;98977.09;15263726;19;20021;-55
2023/09/26 09:54:02;;;;;;;1.50;1.20;;;;;;;18.38;100.00;98970.34;15284269;19;20014;-50
2023/09/26 09:59:36;;;;;;;1.35;1.10;;;;;;;18.66;100.00;98959.41;15273152;19;20056;-54
2023/09/26 10:05:05;;;;;;;2.05;1.23;;;;;;;18.97;100.00;98952.69;15282181;19;20009;-53
2023/09/26 10:10:34;;;;;;;2.45;1.48;;;;;;;19.17;100.00;98941.00;15269272;19;20025;-51
2023/09/26 10:16:19;;;;;;;4.65;1.00;;;;;;;19.40;100.00;98937.94;15281149;19;20034;-52
2023/09/26 10:21:44;;;;;;;1.55;1.13;;;;;;;19.63;100.00;98934.00;15279639;19;20022;-54
2023/09/26 10:27:14;;;;;;;1.60;0.98;;;;;;;19.74;100.00;98921.59;15279880;19;20078;-54
2023/09/26 10:32:45;;;;;;;1.10;0.90;;;;;;;19.90;100.00;98923.94;15277087;19;20014;-50
2023/09/26 10:38:18;;;;;;;4.10;1.13;;;;;;;20.06;100.00;98921.81;15276258;19;20025;-54
2023/09/26 10:43:46;;;;;;;1.05;0.93;;;;;;;20.23;100.00;98917.63;15270079;19;20011;-50
2023/09/26 10:49:16;;;;;;;4.68;0.95;;;;;;;20.44;100.00;98907.47;15274095;19;20020;-53
2023/09/26 10:54:42;;;;;;;1.48;1.00;;;;;;;20.63;100.00;98905.75;15280891;19;20506;-54
2023/09/26 11:00:17;;;;;;;1.45;1.00;;;;;;;20.79;100.00;98909.94;15272829;19;20015;-54
2023/09/26 11:05:42;;;;;;;5.47;1.10;;;;;;;20.89;100.00;98904.84;15280101;19;20025;-52
2023/09/26 11:11:08;;;;;;;1.45;0.80;;;;;;;;;;15277349;19;20014;-55
2023/09/26 11:16:35;;;;;;;1.42;0.98;;;;;;;21.32;100.00;98902.56;15279087;19;20081;-55
2023/09/26 11:22:00;;;;;;;2.63;1.10;;;;;;;21.55;100.00;98904.72;15278357;19;20025;-54
2023/09/26 11:27:26;;;;;;;2.13;0.98;;;;;;;21.75;100.00;98879.91;15276090;19;20484;-55
2023/09/26 11:32:56;;;;;;;0.95;0.80;;;;;;;22.00;100.00;98882.66;15272103;19;20740;-54
2023/09/26 11:38:21;;;;;;;2.13;0.90;;;;;;;22.22;100.00;98879.53;15273615;19;20043;-56
2023/09/26 11:43:55;;;;;;;2.70;0.93;;;;;;;22.37;100.00;98878.31;15265263;19;20411;-55
2023/09/26 11:49:26;;;;;;;3.60;0.90;;;;;;;22.55;100.00;98872.88;15271233;19;20416;-52
2023/09/26 11:54:53;;;;;;;4.00;0.90;;;;;;;22.62;100.00;98861.81;15273241;19;20022;-54
2023/09/26 12:00:21;;;;;;;1.65;0.90;;;;;;;22.63;100.00;98863.50;15267635;19;20014;-53
2023/09/26 12:05:49;;;;;;;1.88;0.90;;;;;;;22.72;100.00;98859.34;15263636;19;20109;-54
2023/09/26 12:11:15;;;;;;;1.98;0.80;;;;;;;22.88;100.00;98854.28;15270694;19;20041;-54
2023/09/26 12:16:39;;;;;;;1.55;0.90;;;;;;;23.02;100.00;98839.31;15265688;19;20021;-53
2023/09/26 12:22:06;;;;;;;2.28;0.90;;;;;;;23.14;100.00;98842.13;15273052;19;21183;-56
2023/09/26 12:27:31;;;;;;;1.85;0.90;;;;;;;23.20;100.00;98827.47;15271931;19;20049;-53
2023/09/26 12:32:56;;;;;;;3.35;1.17;;;;;;;23.37;100.00;98821.31;15271192;19;20090;-55
2023/09/26 12:38:23;;;;;;;3.85;0.93;;;;;;;23.65;100.00;98817.03;15261499;19;20473;-54
2023/09/26 12:43:48;;;;;;;1.65;0.85;;;;;;;23.95;100.00;98816.09;15267420;19;20014;-54
2023/09/26 12:49:13;;;;;;;2.80;0.93;;;;;;;24.11;100.00;98811.81;15261826;19;20097;-56
2023/09/26 12:54:40;;;;;;;2.08;1.00;;;;;;;24.34;100.00;98799.94;15271862;19;20078;-53
2023/09/26 13:00:09;;;;;;;2.10;0.95;;;;;;;24.66;100.00;98806.91;15264980;19;20006;-55
2023/09/26 13:05:35;;;;;;;2.38;1.05;;;;;;;24.69;100.00;98800.97;15268771;19;20261;-54
2023/09/26 13:11:02;;;;;;;4.50;1.00;;;;;;;24.99;100.00;98795.22;15262849;19;20039;-53
2023/09/26 13:16:28;;;;;;;3.45;1.10;;;;;;;25.20;100.00;98790.91;15270277;19;20010;-54
2023/09/26 13:21:53;;;;;;;2.90;1.10;;;;;;;25.45;100.00;98784.22;15259283;19;20026;-57
2023/09/26 13:27:21;;;;;;;2.47;1.02;;;;;;;25.65;100.00;98788.38;15265712;19;20010;-53
2023/09/26 13:32:46;;;;;;;3.45;1.10;;;;;;;25.94;100.00;98786.34;15267138;19;21139;-54
2023/09/26 13:38:11;;;;;;;4.38;1.10;;;;;;;26.22;100.00;98778.19;15263060;19;20037;-54
2023/09/26 13:43:45;;;;;;;3.15;1.10;;;;;;;26.13;98.12;98775.88;15261706;19;20240;-55
2023/09/26 13:49:10;;;;;;;5.10;1.00;;;;;;;26.50;92.54;98779.09;15263491;19;20070;-57
2023/09/26 13:54:34;;;;;;;4.93;1.10;;;;;;;26.75;93.34;98775.81;15256242;19;20625;-58
2023/09/26 14:00:03;;;;;;;4.28;0.93;;;;;;;26.88;85.07;98771.81;15256297;19;20015;-56
2023/09/26 14:05:27;;;;;;;4.10;1.00;;;;;;;27.25;84.45;98771.06;15264222;19;20015;-57
2023/09/26 14:10:52;;;;;;;3.58;1.00;;;;;;;27.36;79.75;98761.78;15259133;19;20014;-56
2023/09/26 14:16:19;;;;;;;5.05;0.95;;;;;;;27.53;75.25;98769.97;15258853;19;20031;-55
2023/09/26 14:21:44;;;;;;;3.05;1.20;;;;;;;27.37;75.81;98768.97;14747193;19;10001161;-55
2023/09/26 14:27:09;;;;;;;2.20;0.85;;;;;;;27.60;73.32;98769.75;15252459;19;20073;-57
2023/09/26 14:32:38;;;;;;;2.00;1.00;;;;;;;27.84;70.36;98774.91;15262926;19;20014;-53
2023/09/26 14:38:02;;;;;;;2.10;1.10;;;;;;;27.76;73.46;98778.16;15265426;19;20344;-52
2023/09/26 14:43:35;;;;;;;1.60;0.90;;;;;;;27.84;69.47;98774.91;15271054;19;20106;-54
2023/09/26 14:49:02;;;;;;;2.58;1.00;;;;;;;27.89;68.52;98763.00;15269056;19;20018;-53
2023/09/26 14:54:27;;;;;;;2.50;0.98;;;;;;;27.65;72.81;98767.03;15278057;19;20634;-53
2023/09/26 14:59:52;;;;;;;3.50;1.00;;;;;;;27.95;70.42;98771.09;15265965;19;20013;-51
2023/09/26 15:05:19;;;;;;;3.80;0.88;;;;;;;28.18;69.00;98763.50;15274721;19;20018;-51
2023/09/26 15:10:44;;;;;;;5.78;1.08;;;;;;;28.13;67.73;98760.72;15268599;19;20014;-49
2023/09/26 15:16:12;;;;;;;2.72;0.93;;;;;;;28.01;68.28;98760.88;15268278;19;20032;-51
2023/09/26 15:21:40;;;;;;;4.93;0.93;;;;;;;27.81;67.35;98759.66;15262546;19;20014;-55
2023/09/26 15:27:04;;;;;;;4.43;1.00;;;;;;;27.77;70.17;98760.47;15275574;19;20024;-50
2023/09/26 15:32:29;;;;;;;4.82;1.08;;;;;;;27.58;68.64;98760.03;15267067;19;20491;-48
2023/09/26 15:37:56;;;;;;;2.75;0.90;;;;;;;27.43;70.95;98758.78;15272056;19;20022;-51
2023/09/26 15:43:27;;;;;;;1.77;0.90;;;;;;;27.27;69.56;98760.59;15269481;19;20035;-53
2023/09/26 15:48:53;;;;;;;1.90;0.90;;;;;;;27.07;71.04;98762.06;15271899;19;20014;-53
2023/09/26 15:54:21;;;;;;;7.93;1.20;;;;;;;26.82;75.37;98759.03;15267491;19;20019;-47
2023/09/26 15:59:46;;;;;;;3.65;1.10;;;;;;;26.56;76.05;98759.56;15266360;19;20025;-48
2023/09/26 16:05:10;;;;;;;4.50;1.00;;;;;;;26.42;78.70;98748.06;15268919;19;20081;-53
2023/09/26 16:10:38;;;;;;;2.42;0.90;;;;;;;26.24;78.11;98756.69;15267080;19;20014;-51
2023/09/26 16:16:02;;;;;;;9.95;1.20;;;;;;;26.06;83.03;98747.56;15272211;19;20018;-54
2023/09/26 16:21:28;;;;;;;3.92;1.02;;;;;;;25.80;85.96;98755.50;15268663;19;20042;-53
2023/09/26 16:26:55;;;;;;;5.82;1.17;;;;;;;25.52;89.64;98754.53;15268255;19;20473;-53
2023/09/26 16:32:21;;;;;;;5.40;1.40;;;;;;;25.20;93.31;98760.59;15271577;19;20011;-52
2023/09/26 16:37:45;;;;;;;5.78;0.90;;;;;;;24.87;96.85;98756.66;15262653;19;20017;-52
2023/09/26 16:43:19;;;;;;;7.60;1.38;;;;;;;24.54;100.00;98766.47;15266440;19;20029;-53
2023/09/26 16:48:45;;;;;;;4.43;1.23;;;;;;;24.07;100.00;98767.44;15269823;19;20021;-51
2023/09/26 16:54:10;;;;;;;3.92;1.27;;;;;;;23.69;100.00;98776.97;15270946;19;20018;-52
2023/09/26 16:59:39;;;;;;;4.13;1.05;;;;;;;23.28;100.00;98776.81;15264816;19;20032;-53
2023/09/26 17:05:06;;;;;;;5.70;1.42;;;;;;;22.91;100.00;98779.66;15269991;19;20046;-52
2023/09/26 17:10:35;;;;;;;6.00;1.10;;;;;;;22.59;100.00;98790.88;15261941;19;20126;-53
2023/09/26 17:16:03;;;;;;;3.97;1.15;;;;;;;22.26;100.00;98789.34;15268062;19;20102;-51
2023/09/26 17:21:29;;;;;;;8.38;1.65;;;;;;;21.97;100.00;98791.75;15265875;19;20050;-51
2023/09/26 17:26:54;;;;;;;4.75;1.30;;;;;;;21.76;100.00;98788.38;15264030;19;20022;-52
2023/09/26 17:32:24;;;;;;;4.45;1.40;;;;;;;21.55;100.00;98793.16;15266856;19;20432;-55
2023/09/26 17:37:48;;;;;;;5.68;1.40;;;;;;;21.38;100.00;98797.50;15258409;19;20017;-55
2023/09/26 17:43:13;;;;;;;7.03;1.55;;;;;;;21.23;100.00;98806.06;15267301;19;20030;-50
2023/09/26 17:48:42;;;;;;;3.72;1.40;;;;;;;21.10;100.00;98823.44;15275985;19;20035;-48
2023/09/26 17:54:09;;;;;;;5.68;1.42;;;;;;;20.94;100.00;98814.66;15270582;19;20025;-54
2023/09/26 17:59:35;;;;;;;9.65;1.63;;;;;;;20.85;100.00;98813.25;15259832;19;20434;-48
2023/09/26 18:05:04;;;;;;;7.97;1.50;;;;;;;20.77;100.00;98818.94;15268197;19;20020;-52
2023/09/26 18:10:29;;;;;;;5.65;1.50;;;;;;;20.67;100.00;98826.75;15256102;19;20006;-53
2023/09/26 18:15:54;;;;;;;7.07;1.40;;;;;;;20.42;100.00;98830.22;15282250;19;20010;-53
2023/09/26 18:21:16;;;;;;;6.90;1.70;;;;;;;20.37;100.00;98838.25;15272927;19;20033;-55
2023/09/26 18:26:40;;;;;;;6.82;1.80;;;;;;;20.24;100.00;98842.69;15275234;19;20483;-55
2023/09/26 18:32:06;;;;;;;6.55;1.50;;;;;;;20.17;100.00;98852.78;15272667;19;20426;-54
2023/09/26 18:37:33;;;;;;;9.32;1.52;;;;;;;20.05;100.00;98852.63;15273138;19;20024;-54
2023/09/26 18:42:58;;;;;;;3.80;1.50;;;;;;;19.89;100.00;98851.16;15262120;19;20018;-52
2023/09/26 18:48:24;;;;;;;5.53;1.50;;;;;;;19.70;100.00;98850.91;15275197;19;20078;-53
2023/09/26 18:53:52;;;;;;;4.45;1.48;;;;;;;19.55;100.00;98855.78;15276974;19;20020;-53
2023/09/26 18:59:18;;;;;;;3.47;1.50;;;;;;;19.34;100.00;98859.53;15273084;19;20015;-53
2023/09/26 19:04:43;;;;;;;10.98;1.65;;;;;;;19.20;100.00;98861.41;15269735;19;20085;-55
2023/09/26 19:10:11;;;;;;;4.20;1.63;;;;;;;18.97;100.00;98861.72;15271003;19;20086;-55
2023/09/26 19:15:36;;;;;;;4.65;1.73;;;;;;;18.76;100.00;98847.97;15269167;19;20049;-55
2023/09/26 19:21:01;;;;;;;3.67;1.70;;;;;;;18.63;100.00;98851.50;15271867;19;20074;-56
2023/09/26 19:26:28;;;;;;;4.15;1.70;;;;;;;18.52;100.00;98853.97;15277070;19;20019;-56
2023/09/26 19:31:54;;;;;;;6.85;1.63;;;;;;;18.37;100.00;98865.00;15272897;19;20413;-56
2023/09/26 19:37:20;;;;;;;5.97;1.80;;;;;;;18.26;100.00;98858.25;15269331;19;20010;-56
2023/09/26 19:42:54;;;;;;;4.65;1.38;;;;;;;18.18;100.00;98857.34;15271967;19;20018;-56
2023/09/26 19:48:21;;;;;;;2.80;1.30;;;;;;;18.14;100.00;98850.63;15264947;19;20456;-55
2023/09/26 19:53:48;;;;;;;6.53;1.40;;;;;;;18.13;100.00;98850.81;15270147;19;20014;-56
2023/09/26 19:59:16;;;;;;;2.95;1.40;;;;;;;18.15;100.00;98851.44;15271303;19;20038;-54
2023/09/26 20:04:41;;;;;;;4.80;1.30;;;;;;;18.15;100.00;98846.00;15277030;19;20014;-56
2023/09/26 20:10:08;;;;;;;3.35;1.50;;;;;;;18.19;100.00;98847.28;15263768;19;20036;-56
2023/09/26 20:15:37;;;;;;;6.70;1.50;;;;;;;18.20;100.00;98842.66;15273466;19;20017;-55
2023/09/26 20:21:02;;;;;;;2.80;1.30;;;;;;;18.16;100.00;98843.09;15264724;19;20459;-56
2023/09/26 20:26:27;;;;;;;4.65;1.50;;;;;;;18.12;100.00;98851.84;15271232;19;20459;-56
2023/09/26 20:31:57;;;;;;;4.97;1.50;;;;;;;18.07;100.00;98843.44;15266647;19;20488;-56
2023/09/26 20:37:21;;;;;;;3.55;1.75;;;;;;;18.07;100.00;98849.72;15272732;19;20014;-55
2023/09/26 20:42:46;;;;;;;4.63;1.65;;;;;;;18.10;100.00;98854.78;15260675;19;20039;-55
2023/09/26 20:48:14;;;;;;;3.90;1.98;;;;;;;18.13;100.00;98862.56;15270788;19;20018;-54
2023/09/26 20:53:39;;;;;;;3.67;1.90;;;;;;;18.14;100.00;98858.81;15263070;19;20469;-56
2023/09/26 20:59:04;;;;;;;3.17;1.75;;;;;;;18.11;100.00;98861.91;15264268;19;20015;-53
2023/09/26 21:04:33;;;;;;;4.68;1.80;;;;;;;18.10;100.00;98862.13;15268605;19;20021;-56
2023/09/26 21:09:58;;;;;;;3.10;1.90;;;;;;;18.05;100.00;98857.25;15265074;19;20950;-56
2023/09/26 21:15:25;;;;;;;3.72;1.83;;;;;;;18.01;100.00;98859.53;15261452;19;20010;-57
2023/09/26 21:20:52;;;;;;;3.85;2.03;;;;;;;17.95;100.00;98868.50;15262545;19;20344;-55
2023/09/26 21:26:18;;;;;;;4.63;2.00;;;;;;;17.85;100.00;98868.81;15262218;19;20011;-56
2023/09/26 21:31:43;;;;;;;7.05;2.10;;;;;;;17.75;100.00;98867.50;15265381;19;20368;-56
2023/09/26 21:37:11;;;;;;;4.35;2.47;;;;;;;17.67;100.00;98863.03;15269654;19;20014;-56
2023/09/26 21:42:38;;;;;;;3.58;2.20;;;;;;;17.59;100.00;98863.16;15264941;19;20345;-55
2023/09/26 21:48:04;;;;;;;3.83;1.95;;;;;;;17.55;100.00;98868.16;15276648;19;20081;-55
2023/09/26 21:53:31;;;;;;;6.25;2.38;;;;;;;17.48;100.00;98862.63;15284398;19;20022;-56
2023/09/26 21:58:56;;;;;;;5.20;2.25;;;;;;;17.42;100.00;98857.97;15269548;19;20074;-56
2023/09/26 22:04:20;;;;;;;4.38;2.40;;;;;;;17.38;100.00;98862.97;15271940;19;20035;-55
2023/09/26 22:09:49;;;;;;;3.47;2.20;;;;;;;17.35;100.00;98857.91;15277444;19;20014;-56
2023/09/26 22:15:16;;;;;;;3.95;2.20;;;;;;;17.30;100.00;98854.09;15281949;19;20022;-56
2023/09/26 22:20:41;;;;;;;3.72;2.28;;;;;;;17.23;100.00;98851.31;15270757;19;20013;-56
2023/09/26 22:26:08;;;;;;;3.90;2.50;;;;;;;17.17;100.00;98861.09;15282171;19;20762;-55
2023/09/26 22:31:34;;;;;;;2.92;2.42;;;;;;;17.12;100.00;98858.09;15269496;19;20478;-56
2023/09/26 22:36:59;;;;;;;5.53;2.63;;;;;;;17.02;100.00;98876.63;15280200;19;20035;-55
2023/09/26 22:42:27;;;;;;;3.95;2.53;;;;;;;16.93;100.00;98871.25;15274008;19;20025;-56
2023/09/26 22:47:51;;;;;;;4.10;2.63;;;;;;;16.85;100.00;98878.69;15278196;19;20073;-55
2023/09/26 22:53:16;;;;;;;3.15;2.30;;;;;;;16.68;100.00;98878.94;15273840;19;20073;-55
2023/09/26 22:58:43;;;;;;;3.83;2.50;;;;;;;16.62;100.00;98880.53;15274731;19;20018;-55
2023/09/26 23:04:09;;;;;;;4.20;2.78;;;;;;;16.57;100.00;98884.84;15264634;19;20033;-54
2023/09/26 23:09:33;;;;;;;3.80;2.53;;;;;;;16.49;100.00;98874.91;15274742;19;20011;-55
2023/09/26 23:15:01;;;;;;;4.68;3.00;;;;;;;16.39;100.00;98879.78;15276133;19;20035;-56
2023/09/26 23:20:26;;;;;;;4.90;2.88;;;;;;;16.30;100.00;98882.56;15268476;19;20013;-54
2023/09/26 23:25:51;;;;;;;3.55;2.65;;;;;;;16.26;100.00;98886.72;15271485;19;20074;-56
2023/09/26 23:31:18;;;;;;;5.70;3.05;;;;;;;16.11;100.00;98883.13;15275098;19;20021;-55
2023/09/26 23:36:46;;;;;;;3.47;2.70;;;;;;;16.06;100.00;98885.56;15266143;19;20014;-56
2023/09/26 23:42:11;;;;;;;3.35;2.60;;;;;;;15.96;100.00;98883.13;15272475;19;20010;-54
2023/09/26 23:47:39;;;;;;;4.03;2.95;;;;;;;15.87;100.00;98876.91;15269608;19;20094;-50
2023/09/26 23:53:04;;;;;;;3.00;2.70;;;;;;;15.77;100.00;98881.75;15271611;19;20463;-49
2023/09/26 23:58:29;;;;;;;2.72;2.42;;;;;;;15.65;100.00;98881.31;15268576;19;20758;-49
